• Join FlightAware (Why Join?)
  • Login
  • US Flag 
04:29AM EST


 

Airport Tracker/Info


-or-


 

Live Flight TrackerFlight Track Log ✈ ACA831 ✈ 28-Apr-2013 ✈ LSGG / GVA - CYUL

Flight Track Log - Related Links

Times and Time Zones

All times are in EDT time to prevent confusion due to time zone crossing. See the ACA831 flight status page for this flight to view local times or setup timezone preferences in your user account.

Time Position Orientation Groundspeed Altitude Reporting Facility
EDT Latitude Longitude Course Direction KTS MPH feet Rate Location/Type
06:29AM 46.2220 6.0860 225° Southwest 188 216 2,400  Level FlightAware
06:30AM 46.2030 6.0580 226° Southwest 188 216 3,700 2,280 Climbing FlightAware
06:30AM 46.1840 6.0310 225° Southwest 193 222 4,700 2,040 Climbing FlightAware
06:31AM 46.1700 6.0100 226° Southwest 195 224 5,600 2,460 Climbing FlightAware
06:31AM 46.1490 5.9770 227° Southwest 196 226 7,000 2,400 Climbing FlightAware
06:32AM 46.1360 5.9500 235° Southwest 206 237 7,800 1,500 Climbing FlightAware
06:32AM 46.1340 5.9340 260° West 230 265 7,900 600 Climbing FlightAware
06:32AM 46.1390 5.9090 286° West 256 295 8,100 1,320 Climbing FlightAware
06:33AM 46.1560 5.8840 314° West 276 318 8,700 1,980 Climbing FlightAware
06:33AM 46.1750 5.8740 340° North 300 345 9,100 1,800 Climbing FlightAware
06:33AM 46.2070 5.8690 354° North 308 354 9,900 2,040 Climbing FlightAware
06:34AM 46.2750 5.8370 342° North 327 376 11,500 1,740 Climbing FlightAware
06:35AM 46.3320 5.7970 334° Northwest 364 419 12,400 1,620 Climbing FlightAware
06:35AM 46.4040 5.7470 334° Northwest 391 450 13,800 2,160 Climbing FlightAware
06:36AM 46.4770 5.6970 335° Northwest 411 473 15,500 2,460 Climbing FlightAware
06:37AM 46.5480 5.6490 335° Northwest 416 479 17,100 2,160 Climbing FlightAware
06:37AM 46.6270 5.5950 335° Northwest 428 493 18,600 2,400 Climbing FlightAware
06:38AM 46.6970 5.5460 334° Northwest 420 483 20,500 2,460 Climbing FlightAware
06:39AM 46.7670 5.4970 334° Northwest 420 483 21,900 1,560 Climbing FlightAware
06:39AM 46.8370 5.4480 334° Northwest 437 503 22,600 900 Climbing FlightAware
06:40AM 46.9120 5.3960 335° Northwest 462 532 23,100 1,020 Climbing FlightAware
06:41AM 46.9910 5.3390 334° Northwest 472 543 24,000 1,320 Climbing FlightAware
06:42AM 47.0830 5.2750 335° Northwest 483 556 25,000 1,200 Climbing FlightAware
06:42AM 47.1450 5.2320 335° Northwest 488 562 25,700 1,020 Climbing FlightAware
06:43AM 47.2270 5.1750 335° Northwest 501 577 26,300 960 Climbing FlightAware
06:44AM 47.3130 5.1110 333° Northwest 506 582 27,000 1,620 Climbing FlightAware
06:44AM 47.4130 5.0060 325° Northwest 492 566 28,900 2,220 Climbing FlightAware
06:45AM 47.4930 4.9220 325° Northwest 483 556 30,400 1,860 Climbing FlightAware
06:46AM 47.5720 4.8250 320° Northwest 463 533 31,600 1,080 Climbing FlightAware
06:46AM 47.6330 4.7400 317° Northwest 448 516 32,000 240 Climbing FlightAware
06:47AM 47.6950 4.6520 316° Northwest 449 517 32,000  Level FlightAware
06:48AM 47.7600 4.5600 316° Northwest 464 534 32,000  Level FlightAware
06:49AM 47.8210 4.4690 315° West 463 533 32,000  Level FlightAware
06:49AM 47.8750 4.3690 309° West 448 516 32,000  Level FlightAware
06:50AM 47.9230 4.2520 302° West 443 510 32,000  Level FlightAware
06:51AM 47.9700 4.1370 301° West 445 512 32,000  Level FlightAware
06:51AM 48.0060 4.0470 301° West 448 516 32,000  Level FlightAware
06:52AM 48.0530 3.9280 301° West 452 520 32,000  Level FlightAware
06:53AM 48.1030 3.8000 300° West 455 524 32,000  Level FlightAware
06:53AM 48.1450 3.6920 300° West 456 525 32,000  Level FlightAware
06:54AM 48.1524 3.6731 300° West 456 525 32,000  Level FlightAware ADS-B
06:54AM 48.1850 3.5880 300° West 457 526 32,000  Level FlightAware
06:54AM 48.2022 3.5450 301° West 457 526 32,000  Level FlightAware ADS-B
06:55AM 48.2340 3.4630 300° West 457 526 32,000  Level FlightAware
06:56AM 48.2740 3.3520 298° West 450 518 32,000  Level FlightAware
06:56AM 48.3030 3.2360 291° West 443 510 32,000  Level FlightAware
06:57AM 48.3322 3.0996 288° West 445 512 32,000  Level FlightAware ADS-B
06:57AM 48.3521 3.0055 288° West 445 512 32,000  Level FlightAware ADS-B
06:58AM 48.3810 2.8620 287° West 447 514 32,000  Level FlightAware
06:59AM 48.3933 2.8033 288° West 446 513 32,000  Level FlightAware ADS-B
06:59AM 48.4115 2.7133 287° West 450 518 32,000  Level FlightAware ADS-B
07:00AM 48.4298 2.6231 287° West 450 518 32,000  Level FlightAware ADS-B
07:00AM 48.4559 2.4923 287° West 451 519 32,000  Level FlightAware ADS-B
07:01AM 48.4741 2.4007 287° West 452 520 32,000  Level FlightAware ADS-B
07:02AM 48.5180 2.1800 287° West 454 522 32,000 -1,020 Level FlightAware
07:02AM 48.5285 2.1253 287° West 1 1 30,500  Descending FlightAware UK
07:03AM 48.5380 2.0790 287° West 456 525 32,000 2,700 Climbing FlightAware
07:03AM 48.5481 2.0259 286° West 458 527 32,000 -3,480 Level FlightAware ADS-B
07:03AM 48.5580 1.9796 286° West 454 522 30,400  Descending FlightAware UK
07:04AM 48.5690 1.9180 286° West 459 528 32,000 3,180 Climbing FlightAware
07:04AM 48.5746 1.8901 287° West 460 529 32,000 -3,480 Level FlightAware ADS-B
07:04AM 48.5862 1.8328 287° West 456 525 30,500  Descending FlightAware UK
07:04AM 48.5956 1.7813 287° West 463 533 32,000  Climbing FlightAware ADS-B
07:05AM 48.6074 1.7213 287° West 464 534 30,500  Descending FlightAware UK
07:05AM 48.6140 1.6870 287° West 464 534 32,000 3,300 Climbing FlightAware
07:05AM 48.6230 1.6394 286° West 465 535 32,000 -3,120 Level FlightAware ADS-B
07:05AM 48.6325 1.5902 286° West 466 536 30,500  Descending FlightAware UK
07:06AM 48.6430 1.5360 286° West 466 536 32,000 2,400 Climbing FlightAware
07:06AM 48.6543 1.4746 286° West 466 536 32,000 -2,340 Level FlightAware ADS-B
07:06AM 48.6685 1.4034 286° West 462 532 30,500 -2,220 Descending FlightAware UK
07:07AM 48.6790 1.3468 286° West 464 534 30,500  Level FlightAware UK
07:07AM 48.6893 1.2900 285° West 466 536 30,500 3,180 Level FlightAware UK
07:07AM 48.6930 1.2680 285° West 468 539 32,000  Climbing FlightAware
07:07AM 48.7068 1.1952 285° West 468 539 30,500  Descending FlightAware UK
07:08AM 48.7180 1.1370 285° West 469 540 32,000  Climbing FlightAware
07:08AM 48.7283 1.0826 285° West 466 536 30,500 -2,700 Descending FlightAware UK
07:08AM 48.7388 1.0264 286° West 466 536 30,500 3,720 Level FlightAware UK
07:08AM 48.7400 1.0160 286° West 470 541 32,000  Climbing FlightAware
07:09AM 48.7561 0.9304 286° West 468 539 30,500  Descending FlightAware UK
07:09AM 48.7670 0.8690 286° West 470 541 32,000  Climbing FlightAware
07:09AM 48.7804 0.7978 286° West 468 539 30,500  Descending FlightAware UK
07:10AM 48.7900 0.7450 286° West 471 542 32,000  Climbing FlightAware
07:10AM 48.8014 0.6833 286° West 466 536 30,500  Descending FlightAware UK
07:10AM 48.8130 0.6190 286° West 471 542 32,000  Climbing FlightAware
07:11AM 48.8255 0.5503 286° West 468 539 30,500 -2,160 Descending FlightAware UK
07:11AM 48.8393 0.4738 285° West 462 532 30,500 3,300 Level FlightAware UK
07:11AM 48.8400 0.4690 285° West 471 542 32,000  Climbing FlightAware
07:11AM 48.8495 0.4168 285° West 460 529 30,500 -2,760 Descending FlightAware UK
07:12AM 48.8596 0.3605 285° West 466 536 30,500 3,600 Level FlightAware UK
07:12AM 48.8620 0.3490 285° West 470 541 32,000  Climbing FlightAware
07:12AM 48.8800 0.2468 285° West 462 532 30,500  Descending FlightAware UK
07:13AM 48.8860 0.2120 285° West 468 539 32,000  Climbing FlightAware
07:13AM 48.9003 0.1326 285° West 466 536 30,500  Descending FlightAware UK
07:13AM 48.9100 0.0760 285° West 468 539 32,000  Climbing FlightAware
07:14AM 48.9202 0.0191 285° West 462 532 30,500 -2,700 Descending FlightAware UK
07:14AM 48.9290 -0.0385 283° West 462 532 30,500 3,720 Level FlightAware UK
07:14AM 48.9310 -0.0480 283° West 467 537 32,000 1,740 Climbing FlightAware
07:15AM 48.9570 -0.1950 285° West 465 535 32,000 -1,380 Level FlightAware
07:15AM 48.9686 -0.2656 285° West 456 525 30,500  Descending FlightAware UK
07:15AM 48.9760 -0.3040 285° West 465 535 32,000  Climbing FlightAware
07:15AM 48.9785 -0.3225 285° West 456 525 30,500 -5,640 Descending FlightAware UK
07:16AM 48.9851 -0.3603 285° West 456 525 30,500 2,160 Level FlightAware UK
07:16AM 49.0000 -0.4460 285° West 464 534 32,000  Climbing FlightAware
07:17AM 49.0173 -0.5491 285° West 456 525 30,500  Descending FlightAware UK
07:17AM 49.0250 -0.5890 285° West 464 534 32,000 1,620 Climbing FlightAware
07:17AM 49.0450 -0.7120 284° West 464 534 32,000  Level FlightAware
07:18AM 49.0700 -0.8600 285° West 465 535 32,000  Level FlightAware
07:19AM 49.0900 -0.9780 285° West 465 535 32,000 -1,620 Level FlightAware
07:19AM 49.0997 -1.0417 285° West 454 522 30,500  Descending FlightAware UK
07:20AM 49.1100 -1.1030 285° West 465 535 32,000  Climbing FlightAware
07:20AM 49.1308 -1.2322 285° West 454 522 30,500  Descending FlightAware UK
07:20AM 49.1340 -1.2470 285° West 466 536 32,000  Climbing FlightAware
07:21AM 49.1433 -1.3087 285° West 454 522 30,500  Descending FlightAware UK
07:21AM 49.1550 -1.3780 285° West 467 537 32,000  Climbing FlightAware
07:21AM 49.1715 -1.4814 285° West 454 522 30,500  Descending FlightAware UK
07:22AM 49.1740 -1.4930 285° West 468 539 32,000  Climbing FlightAware
07:22AM 49.1870 -1.5771 285° West 454 522 30,500 -2,100 Descending FlightAware UK
07:22AM 49.1995 -1.6542 284° West 456 525 30,500 3,420 Level FlightAware UK
07:22AM 49.1990 -1.6500 284° West 468 539 32,000  Climbing FlightAware
07:23AM 49.2119 -1.7314 284° West 454 522 30,500  Descending FlightAware UK
07:23AM 49.2190 -1.7780 284° West 468 539 32,000  Climbing FlightAware
07:23AM 49.2329 -1.8668 284° West 454 522 30,500 -2,160 Descending FlightAware UK
07:24AM 49.2416 -1.9241 283° West 454 522 30,500 4,260 Level FlightAware UK
07:24AM 49.2400 -1.9110 283° West 468 539 32,000  Climbing FlightAware
07:24AM 49.2536 -2.0013 283° West 450 518 30,500 -2,340 Descending FlightAware UK
07:24AM 49.2630 -2.0593 284° West 450 518 30,500 4,680 Level FlightAware UK
07:24AM 49.2610 -2.0440 284° West 469 540 32,000  Climbing FlightAware
07:25AM 49.2718 -2.1172 284° West 450 518 30,500  Descending FlightAware UK
07:25AM 49.2820 -2.1800 284° West 467 537 32,000  Climbing FlightAware
07:25AM 49.2926 -2.2520 284° West 450 518 30,500 -2,160 Descending FlightAware UK
07:26AM 49.3044 -2.3292 283° West 450 518 30,500 3,300 Level FlightAware UK
07:26AM 49.3030 -2.3230 283° West 468 539 32,000  Climbing FlightAware
07:26AM 49.3134 -2.3874 283° West 450 518 30,500  Descending FlightAware UK
07:26AM 49.3210 -2.4400 283° West 469 540 32,000  Climbing FlightAware
07:27AM 49.3306 -2.5037 283° West 452 520 30,500 -2,700 Descending FlightAware UK
07:27AM 49.3393 -2.5623 283° West 452 520 30,500 3,060 Level FlightAware UK
07:27AM 49.3430 -2.5810 283° West 470 541 32,000  Climbing FlightAware
07:28AM 49.3540 -2.6600 283° West 454 522 30,500  Descending FlightAware UK
07:28AM 49.3570 -2.6790 283° West 470 541 32,000  Climbing FlightAware
07:28AM 49.3772 -2.8164 283° West 454 522 30,500  Descending FlightAware UK
07:28AM 49.3800 -2.8330 283° West 469 540 32,000  Climbing FlightAware
07:29AM 49.3889 -2.8938 283° West 454 522 30,500 -2,280 Descending FlightAware UK
07:29AM 49.4004 -2.9721 283° West 454 522 30,500 3,060 Level FlightAware UK
07:29AM 49.4010 -2.9790 283° West 470 541 32,000  Climbing FlightAware
07:30AM 49.4144 -3.0694 283° West 454 522 30,500 -1,860 Descending FlightAware UK
07:30AM 49.4257 -3.1477 283° West 454 522 30,500 3,600 Level FlightAware UK
07:30AM 49.4250 -3.1440 283° West 472 543 32,000  Climbing FlightAware
07:30AM 49.4341 -3.2065 283° West 454 522 30,500  Descending FlightAware UK
07:31AM 49.4460 -3.2890 283° West 473 544 32,000  Climbing FlightAware
07:32AM 49.4679 -3.4413 283° West 458 527 30,500  Descending FlightAware UK
07:32AM 49.4720 -3.4710 283° West 472 543 32,000  Climbing FlightAware
07:32AM 49.4817 -3.5395 283° West 456 525 30,500  Descending FlightAware UK
07:32AM 49.4930 -3.6170 283° West 472 543 32,000  Climbing FlightAware
07:33AM 49.5036 -3.6968 283° West 456 525 30,500  Descending FlightAware UK
07:33AM 49.5110 -3.7470 283° West 472 543 32,000  Climbing FlightAware
07:34AM 49.5227 -3.8344 283° West 456 525 30,500  Descending FlightAware UK
07:34AM 49.5260 -3.8620 283° West 469 540 32,000  Climbing FlightAware
07:34AM 49.5384 -3.9523 283° West 458 527 30,500 -2,100 Descending FlightAware UK
07:34AM 49.5462 -4.0112 281° West 458 527 30,500 3,600 Level FlightAware UK
07:35AM 49.5480 -4.0250 281° West 467 537 32,000  Climbing FlightAware
07:35AM 49.5589 -4.1093 281° West 456 525 30,500 -1,740 Descending FlightAware UK
07:35AM 49.5711 -4.2062 281° West 456 525 30,500 2,760 Level FlightAware UK
07:35AM 49.5720 -4.2060 281° West 465 535 32,000  Climbing FlightAware
07:36AM 49.5863 -4.3231 281° West 456 525 30,500  Descending FlightAware UK
07:36AM 49.5880 -4.3330 281° West 463 533 32,000  Climbing FlightAware
07:36AM 49.5964 -4.4009 281° West 456 525 30,500 -2,580 Descending FlightAware UK
07:37AM 49.6039 -4.4592 281° West 454 522 30,500 4,980 Level FlightAware UK
07:37AM 49.6020 -4.4390 281° West 462 532 32,000  Climbing FlightAware
07:37AM 49.6113 -4.5173 281° West 458 527 30,500 -2,520 Descending FlightAware UK
07:37AM 49.6186 -4.5753 281° West 456 525 30,500 3,300 Level FlightAware UK
07:37AM 49.6200 -4.5830 281° West 460 529 32,000  Climbing FlightAware
07:38AM 49.6283 -4.6524 281° West 454 522 30,500 -2,760 Descending FlightAware UK
07:38AM 49.6356 -4.7101 281° West 452 520 30,500  Level FlightAware UK
07:38AM 49.6429 -4.7677 281° West 452 520 30,500 2,100 Level FlightAware UK
07:39AM 49.6500 -4.8230 281° West 455 524 32,000  Climbing FlightAware
07:39AM 49.6598 -4.9010 281° West 450 518 30,500 -1,920 Descending FlightAware UK
07:40AM 49.6715 -4.9965 281° West 446 513 30,500  Level FlightAware UK
07:40AM 49.6785 -5.0539 281° West 446 513 30,500 4,080 Level FlightAware UK
07:40AM 49.6770 -5.0410 281° West 456 525 32,000  Climbing FlightAware
07:40AM 49.6877 -5.1302 281° West 446 513 30,500 -2,400 Descending FlightAware UK
07:41AM 49.6947 -5.1875 281° West 446 513 30,500  Level FlightAware UK
07:41AM 49.7016 -5.2448 281° West 448 516 30,500 2,100 Level FlightAware UK
07:41AM 49.7090 -5.3010 281° West 454 522 32,000  Climbing FlightAware
07:42AM 49.7176 -5.3786 281° West 448 516 30,500 -2,520 Descending FlightAware UK
07:42AM 49.7246 -5.4360 281° West 448 516 30,500  Level FlightAware UK
07:42AM 49.7316 -5.4933 281° West 446 513 30,500  Level FlightAware UK
07:42AM 49.7383 -5.5509 280° West 448 516 30,500 4,260 Level FlightAware UK
07:42AM 49.7370 -5.5400 280° West 456 525 32,000  Climbing FlightAware
07:43AM 49.7450 -5.6085 280° West 450 518 30,500 -2,760 Descending FlightAware UK
07:43AM 49.7517 -5.6661 280° West 450 518 30,500 3,600 Level FlightAware UK
07:43AM 49.7530 -5.6770 280° West 456 525 32,000  Climbing FlightAware
07:43AM 49.7607 -5.7431 280° West 448 516 30,500 -2,580 Descending FlightAware UK
07:44AM 49.7673 -5.8009 280° West 450 518 30,500 3,900 Level FlightAware UK
07:44AM 49.7680 -5.8070 280° West 458 527 32,000  Climbing FlightAware
07:44AM 49.7761 -5.8781 280° West 452 520 30,500 -2,460 Descending FlightAware UK
07:44AM 49.7828 -5.9353 280° West 454 522 30,500 3,420 Level FlightAware UK
07:45AM 49.7850 -5.9550 280° West 458 527 32,000  Climbing FlightAware
07:45AM 49.7917 -6.0126 280° West 458 527 30,500 -2,700 Descending FlightAware UK
07:45AM 49.7981 -6.0705 280° West 460 529 30,500 3,720 Level FlightAware UK
07:45AM 49.8000 -6.0840 280° West 457 526 32,000  Climbing FlightAware
07:46AM 49.8134 -6.2055 280° West 454 522 30,500  Descending FlightAware UK
07:46AM 49.8160 -6.2260 280° West 456 525 32,000  Climbing FlightAware
07:46AM 49.8217 -6.2825 280° West 456 525 30,500 -2,760 Descending FlightAware UK
07:47AM 49.8281 -6.3402 280° West 458 527 30,500 3,600 Level FlightAware UK
07:47AM 49.8300 -6.3550 280° West 456 525 32,000  Climbing FlightAware
07:47AM 49.8367 -6.4171 280° West 456 525 30,500 -2,580 Descending FlightAware UK
07:47AM 49.8432 -6.4749 280° West 456 525 30,500 3,900 Level FlightAware UK
07:47AM 49.8450 -6.4830 280° West 456 525 32,000  Climbing FlightAware
07:48AM 49.8516 -6.5520 280° West 460 529 30,500 -2,460 Descending FlightAware UK
07:48AM 49.8577 -6.6099 279° West 458 527 30,500 3,420 Level FlightAware UK
07:48AM 49.8600 -6.6280 279° West 455 524 32,000  Climbing FlightAware
07:48AM 49.8659 -6.6870 279° West 458 527 30,500 -2,700 Descending FlightAware UK
07:49AM 49.8721 -6.7448 279° West 464 534 30,500 3,720 Level FlightAware UK
07:49AM 49.8740 -6.7580 279° West 454 522 32,000  Climbing FlightAware
07:49AM 49.8803 -6.8217 279° West 462 532 30,500 -2,520 Descending FlightAware UK
07:49AM 49.8866 -6.8793 280° West 462 532 30,500 3,300 Level FlightAware UK
07:49AM 49.8890 -6.8970 280° West 453 521 32,000  Climbing FlightAware
07:50AM 49.8948 -6.9560 280° West 460 529 30,500 -2,760 Descending FlightAware UK
07:50AM 49.9007 -7.0129 279° West 460 529 30,500 3,600 Level FlightAware UK
07:50AM 49.9030 -7.0270 279° West 452 520 32,000  Climbing FlightAware
07:50AM 49.9085 -7.0896 279° West 462 532 30,500 -2,580 Descending FlightAware UK
07:51AM 49.9147 -7.1470 279° West 460 529 30,500 3,900 Level FlightAware UK
07:51AM 49.9160 -7.1450 279° West 450 518 32,000 480 Climbing FlightAware
07:51AM 49.9262 -7.2213 279° West 456 525 30,700 -1,680 Descending FlightAware UK
07:51AM 49.9350 -7.2763 284° West 454 522 31,000 5,100 Climbing FlightAware UK
07:51AM 49.9360 -7.2790 284° West 435 501 32,500 300 Climbing FlightAware
07:52AM 49.9442 -7.3303 284° West 452 520 31,100 -2,220 Descending FlightAware UK
07:52AM 49.9536 -7.3843 285° West 450 518 31,300 660 Climbing FlightAware UK
07:52AM 49.9632 -7.4383 285° West 452 520 31,500 780 Climbing FlightAware UK
07:53AM 49.9729 -7.4921 286° West 452 520 31,800 4,500 Climbing FlightAware UK
07:53AM 49.9720 -7.4810 286° West 433 498 33,300 480 Climbing FlightAware
07:53AM 49.9857 -7.5638 286° West 450 518 32,000 660 Descending FlightAware UK
07:53AM 49.9920 -7.5990 285° West 433 498 33,700 660 Climbing FlightAware
07:53AM 49.9952 -7.6177 285° West 452 520 32,200 -4,140 Descending FlightAware UK
07:54AM 50.0047 -7.6716 285° West 456 525 32,400 480 Climbing FlightAware UK
07:54AM 50.0142 -7.7258 285° West 454 522 32,500 3,660 Climbing FlightAware UK
07:54AM 50.0150 -7.7310 285° West 436 502 34,000 -300 Climbing FlightAware
07:54AM 50.0266 -7.7984 285° West 452 520 32,400 -2,880 Descending FlightAware UK
07:55AM 50.0360 -7.8531 285° West 454 522 32,400 3,960 Level FlightAware UK
07:55AM 50.0290 -7.8120 285° West 440 506 34,000 240 Climbing FlightAware
07:55AM 50.0485 -7.9266 285° West 454 522 32,500 -2,700 Descending FlightAware UK
07:55AM 50.0578 -7.9822 285° West 452 520 32,400 2,760 Descending FlightAware UK
07:56AM 50.0640 -8.0190 285° West 441 507 34,000  Climbing FlightAware
07:56AM 50.0730 -8.0746 285° West 450 518 32,400 -2,880 Descending FlightAware UK
07:56AM 50.0821 -8.1301 284° West 452 520 32,400 3,300 Level FlightAware UK
07:56AM 50.0870 -8.1540 284° West 441 507 34,000 180 Climbing FlightAware
07:57AM 50.0970 -8.2218 284° West 454 522 32,500  Descending FlightAware UK
07:57AM 50.1070 -8.2780 284° West 441 507 34,000  Climbing FlightAware
07:57AM 50.1150 -8.3324 284° West 452 520 32,500 -2,760 Descending FlightAware UK
07:58AM 50.1241 -8.3878 284° West 452 520 32,500 3,600 Level FlightAware UK
07:58AM 50.1270 -8.3990 284° West 442 509 34,000  Climbing FlightAware
07:58AM 50.1363 -8.4615 284° West 450 518 32,500 -2,580 Descending FlightAware UK
07:58AM 50.1455 -8.5169 285° West 450 518 32,500 3,180 Level FlightAware UK
07:58AM 50.1490 -8.5380 285° West 442 509 34,000  Climbing FlightAware
07:59AM 50.1605 -8.6092 285° West 450 518 32,500 -2,400 Descending FlightAware UK
07:59AM 50.1693 -8.6647 284° West 450 518 32,500 4,500 Level FlightAware UK
07:59AM 50.1700 -8.6650 284° West 442 509 34,000  Climbing FlightAware
07:59AM 50.1782 -8.7203 284° West 454 522 32,500 -2,700 Descending FlightAware UK
08:00AM 50.1870 -8.7758 284° West 454 522 32,500 3,060 Level FlightAware UK
08:00AM 50.1920 -8.8020 284° West 441 507 34,000  Climbing FlightAware
08:00AM 50.2018 -8.8683 284° West 454 522 32,500  Descending FlightAware UK
08:00AM 50.2080 -8.9050 284° West 441 507 34,000  Climbing FlightAware
08:00AM 50.2106 -8.9239 284° West 456 525 32,500 -4,500 Descending FlightAware UK
08:01AM 50.2193 -8.9795 284° West 456 525 32,500  Level FlightAware UK
08:01AM 50.2283 -9.0350 284° West 456 525 32,500 3,600 Level FlightAware UK
08:01AM 50.2300 -9.0410 284° West 439 505 34,000 1,680 Climbing FlightAware
08:02AM 50.2490 -9.1740 283° West 439 505 34,000  Level FlightAware
08:02AM 50.2680 -9.2860 285° West 438 504 34,000  Level FlightAware
08:03AM 50.2880 -9.4150 284° West 438 504 34,000  Level FlightAware
08:04AM 50.3020 -9.5180 282° West 438 504 34,000  Level FlightAware
08:05AM 50.3290 -9.6870 284° West 438 504 34,000  Level FlightAware
08:05AM 50.3470 -9.8030 284° West 438 504 34,000  Level FlightAware
08:06AM 50.3650 -9.9240 283° West 438 504 34,000  Level FlightAware
08:07AM 50.3940 -10.1230 283° West 438 504 34,000  Level FlightAware
08:08AM 50.4100 -10.2280 283° West 438 504 34,000  Level FlightAware
08:08AM 50.4330 -10.3880 283° West 436 502 34,000  Level FlightAware
08:09AM 50.4520 -10.5230 283° West 436 502 34,000  Level FlightAware
08:10AM 50.4660 -10.6210 283° West 436 502 34,000  Level FlightAware
08:10AM 50.4800 -10.7260 282° West 436 502 34,000  Level FlightAware
08:11AM 50.4980 -10.8580 282° West 436 502 34,000  Level FlightAware
08:12AM 50.5120 -10.9630 282° West 436 502 34,000  Level FlightAware
08:12AM 50.5230 -11.0420 282° West 436 502 34,000  Level FlightAware
08:13AM 50.5370 -11.1480 282° West 436 502 34,000  Level FlightAware
08:14AM 50.5510 -11.2540 282° West 436 502 34,000  Level FlightAware
08:14AM 50.5650 -11.3590 282° West 436 502 34,000  Level FlightAware
08:15AM 50.5800 -11.4650 283° West 436 502 34,000  Level FlightAware
08:16AM 50.5970 -11.5970 282° West 436 502 34,000  Level FlightAware
08:17AM 50.6120 -11.7030 283° West 436 502 34,000  Level FlightAware
08:17AM 50.6260 -11.8080 282° West 436 502 34,000  Level FlightAware
08:18AM 50.6400 -11.9140 282° West 436 502 34,000  Level FlightAware
08:19AM 50.6540 -12.0200 282° West 436 502 34,000  Level FlightAware
08:21AM 50.7226 -12.3659 288° West  Level Estimated
08:22AM 50.7571 -12.5422 287° West  Level Estimated
08:23AM 50.7914 -12.7187 287° West  Level Estimated
08:24AM 50.8254 -12.8955 287° West  Level Estimated
08:25AM 50.8591 -13.0725 287° West  Level Estimated
08:26AM 50.8925 -13.2499 287° West  Level Estimated
08:27AM 50.9257 -13.4274 287° West  Level Estimated
08:28AM 50.9586 -13.6052 286° West  Level Estimated
08:29AM 50.9912 -13.7833 286° West  Level Estimated
08:30AM 51.0236 -13.9616 286° West  Level Estimated
08:31AM 51.0557 -14.1402 286° West  Level Estimated
08:32AM 51.0875 -14.3189 286° West  Level Estimated
08:33AM 51.1190 -14.4980 286° West  Level Estimated
08:34AM 51.1503 -14.6773 286° West  Level Estimated
08:35AM 51.1813 -14.8568 285° West  Level Estimated
08:36AM 51.2120 -15.0366 285° West  Level Estimated
08:37AM 51.2424 -15.2166 285° West  Level Estimated
08:38AM 51.2726 -15.3969 285° West  Level Estimated
08:39AM 51.3025 -15.5773 285° West  Level Estimated
08:40AM 51.3321 -15.7581 285° West  Level Estimated
08:41AM 51.3614 -15.9390 285° West  Level Estimated
08:42AM 51.3905 -16.1202 284° West  Level Estimated
08:43AM 51.4192 -16.3016 284° West  Level Estimated
08:44AM 51.4477 -16.4832 284° West  Level Estimated
08:45AM 51.4759 -16.6651 284° West  Level Estimated
08:46AM 51.5039 -16.8472 284° West  Level Estimated
08:47AM 51.5315 -17.0295 284° West  Level Estimated
08:48AM 51.5589 -17.2120 284° West  Level Estimated
08:49AM 51.5860 -17.3948 283° West  Level Estimated
08:50AM 51.6128 -17.5778 283° West  Level Estimated
08:51AM 51.6397 -17.7639 283° West  Level Estimated
08:52AM 51.6663 -17.9502 283° West  Level Estimated
08:53AM 51.6927 -18.1367 283° West  Level Estimated
08:54AM 51.7187 -18.3234 283° West  Level Estimated
08:55AM 51.7444 -18.5104 283° West  Level Estimated
08:56AM 51.7699 -18.6975 282° West  Level Estimated
08:57AM 51.7951 -18.8849 282° West  Level Estimated
08:58AM 51.8199 -19.0725 282° West  Level Estimated
08:59AM 51.8445 -19.2603 282° West  Level Estimated
09:00AM 51.8687 -19.4483 282° West  Level Estimated
09:01AM 51.8927 -19.6364 282° West  Level Estimated
09:02AM 51.9164 -19.8248 282° West  Level Estimated
09:03AM 51.9397 -20.0134 281° West  Level Estimated
09:04AM 51.9628 -20.2022 281° West  Level Estimated
09:04AM 51.0000 -20.0000 274° West 411 473 34,000  Level ETMS Enhanced Traffic Management System
09:05AM 51.9855 -20.3912 281° West  Level Estimated
09:06AM 52.0080 -20.5804 281° West  Level Estimated
09:07AM 52.0301 -20.7697 281° West  Level Estimated
09:08AM 52.0519 -20.9593 281° West  Level Estimated
09:09AM 52.0735 -21.1490 281° West  Level Estimated
09:10AM 51.0584 -21.6335 273° West 411 473 34,000  Level FlightAware Transoceanic
09:11AM 51.0635 -21.8153 272° West 411 473 34,000  Level FlightAware Transoceanic
09:12AM 51.0683 -21.9970 272° West 411 473 34,000  Level FlightAware Transoceanic
09:13AM 51.0728 -22.1789 272° West 411 473 34,000  Level FlightAware Transoceanic
09:14AM 51.0771 -22.3607 272° West 411 473 34,000  Level FlightAware Transoceanic
09:15AM 51.0810 -22.5426 272° West 411 473 34,000  Level FlightAware Transoceanic
09:16AM 51.0847 -22.7245 272° West 411 473 34,000  Level FlightAware Transoceanic
09:17AM 51.0881 -22.9064 272° West 411 473 34,000  Level FlightAware Transoceanic
09:18AM 51.0912 -23.0884 271° West 411 473 34,000  Level FlightAware Transoceanic
09:19AM 51.0940 -23.2704 271° West 411 473 34,000  Level FlightAware Transoceanic
09:20AM 51.0966 -23.4524 271° West 411 473 34,000  Level FlightAware Transoceanic
09:21AM 51.0988 -23.6344 271° West 411 473 34,000  Level FlightAware Transoceanic
09:22AM 51.1008 -23.8165 271° West 411 473 34,000  Level FlightAware Transoceanic
09:23AM 51.1025 -23.9985 271° West 411 473 34,000  Level FlightAware Transoceanic
09:24AM 51.1039 -24.1806 271° West 411 473 34,000  Level FlightAware Transoceanic
09:25AM 51.1051 -24.3627 270° West 411 473 34,000  Level FlightAware Transoceanic
09:26AM 51.1059 -24.5448 270° West 411 473 34,000  Level FlightAware Transoceanic
09:27AM 51.1065 -24.7269 270° West 411 473 34,000  Level FlightAware Transoceanic
09:28AM 51.1068 -24.9090 270° West 411 473 34,000  Level FlightAware Transoceanic
09:29AM 51.1068 -25.0910 270° West 411 473 34,000  Level FlightAware Transoceanic
09:30AM 51.1065 -25.2731 270° West 411 473 34,000  Level FlightAware Transoceanic
09:31AM 51.1059 -25.4552 270° West 411 473 34,000  Level FlightAware Transoceanic
09:32AM 51.1051 -25.6373 270° West 411 473 34,000  Level FlightAware Transoceanic
09:33AM 51.1039 -25.8194 269° West 411 473 34,000  Level FlightAware Transoceanic
09:34AM 51.1025 -26.0015 269° West 411 473 34,000  Level FlightAware Transoceanic
09:35AM 51.1008 -26.1835 269° West 411 473 34,000  Level FlightAware Transoceanic
09:36AM 51.0988 -26.3656 269° West 411 473 34,000  Level FlightAware Transoceanic
09:37AM 51.0966 -26.5476 269° West 411 473 34,000  Level FlightAware Transoceanic
09:38AM 51.0940 -26.7296 269° West 411 473 34,000  Level FlightAware Transoceanic
09:39AM 51.0912 -26.9116 269° West 411 473 34,000  Level FlightAware Transoceanic
09:40AM 51.0881 -27.0936 268° West 411 473 34,000  Level FlightAware Transoceanic
09:41AM 51.0847 -27.2755 268° West 411 473 34,000  Level FlightAware Transoceanic
09:42AM 51.0810 -27.4574 268° West 411 473 34,000  Level FlightAware Transoceanic
09:43AM 51.0771 -27.6393 268° West 411 473 34,000  Level FlightAware Transoceanic
09:44AM 51.0728 -27.8211 268° West 411 473 34,000  Level FlightAware Transoceanic
09:45AM 51.0683 -28.0030 268° West 411 473 34,000  Level FlightAware Transoceanic
09:46AM 51.0635 -28.1847 268° West 411 473 34,000  Level FlightAware Transoceanic
09:47AM 51.0584 -28.3665 267° West 411 473 34,000  Level FlightAware Transoceanic
09:48AM 51.0531 -28.5482 267° West 411 473 34,000  Level FlightAware Transoceanic
09:49AM 51.0474 -28.7298 267° West 411 473 34,000  Level FlightAware Transoceanic
09:50AM 51.0415 -28.9114 267° West 411 473 34,000  Level FlightAware Transoceanic
09:51AM 51.0353 -29.0930 267° West 411 473 34,000  Level FlightAware Transoceanic
09:52AM 51.0288 -29.2745 267° West 411 473 34,000  Level FlightAware Transoceanic
09:53AM 51.0220 -29.4560 267° West 411 473 34,000  Level FlightAware Transoceanic
09:54AM 51.0149 -29.6374 266° West 411 473 34,000  Level FlightAware Transoceanic
09:55AM 51.0076 -29.8187 266° West 411 473 34,000  Level FlightAware Transoceanic
09:56AM 50.9997 -30.0068 266° West  Level FlightAware Approximate
09:57AM 50.9992 -30.0136 265° West  Level FlightAware Approximate
09:58AM 50.9886 -30.2013 265° West  Level FlightAware Approximate
09:59AM 50.9777 -30.3889 265° West  Level FlightAware Approximate
09:59AM 51.0000 -30.0000 265° West 421 484 34,000  Level ETMS Enhanced Traffic Management System
10:00AM 50.9665 -30.5764 265° West  Level FlightAware Approximate
10:01AM 50.9550 -30.7638 265° West  Level FlightAware Approximate
10:02AM 50.9433 -30.9498 264° West  Level FlightAware Approximate
10:03AM 50.9313 -31.1357 264° West  Level FlightAware Approximate
10:04AM 50.9189 -31.3214 264° West  Level FlightAware Approximate
10:05AM 50.9083 -31.4784 264° West 421 484 34,000  Level FlightAware Transoceanic
10:06AM 50.8955 -31.6628 264° West 421 484 34,000  Level FlightAware Transoceanic
10:07AM 50.8824 -31.8471 264° West 421 484 34,000  Level FlightAware Transoceanic
10:08AM 50.8691 -32.0312 263° West 421 484 34,000  Level FlightAware Transoceanic
10:09AM 50.8554 -32.2153 263° West 421 484 34,000  Level FlightAware Transoceanic
10:10AM 50.8415 -32.3993 263° West 421 484 34,000  Level FlightAware Transoceanic
10:11AM 50.8273 -32.5831 263° West 421 484 34,000  Level FlightAware Transoceanic
10:12AM 50.8128 -32.7668 263° West 421 484 34,000  Level FlightAware Transoceanic
10:13AM 50.7980 -32.9505 263° West 421 484 34,000  Level FlightAware Transoceanic
10:14AM 50.7829 -33.1340 263° West 421 484 34,000  Level FlightAware Transoceanic
10:15AM 50.7675 -33.3173 262° West 421 484 34,000  Level FlightAware Transoceanic
10:16AM 50.7519 -33.5006 262° West 421 484 34,000  Level FlightAware Transoceanic
10:17AM 50.7359 -33.6837 262° West 421 484 34,000  Level FlightAware Transoceanic
10:18AM 50.7197 -33.8667 262° West 421 484 34,000  Level FlightAware Transoceanic
10:19AM 50.7031 -34.0496 262° West 421 484 34,000  Level FlightAware Transoceanic
10:20AM 50.6863 -34.2324 262° West 421 484 34,000  Level FlightAware Transoceanic
10:21AM 50.6692 -34.4150 262° West 421 484 34,000  Level FlightAware Transoceanic
10:22AM 50.6519 -34.5975 261° West 421 484 34,000  Level FlightAware Transoceanic
10:23AM 50.6342 -34.7798 261° West 421 484 34,000  Level FlightAware Transoceanic
10:24AM 50.6162 -34.9620 261° West 421 484 34,000  Level FlightAware Transoceanic
10:25AM 50.5980 -35.1441 261° West 421 484 34,000  Level FlightAware Transoceanic
10:26AM 50.5795 -35.3260 261° West 421 484 34,000  Level FlightAware Transoceanic
10:27AM 50.5607 -35.5078 261° West 421 484 34,000  Level FlightAware Transoceanic
10:28AM 50.5416 -35.6894 261° West 421 484 34,000  Level FlightAware Transoceanic
10:29AM 50.5223 -35.8709 260° West 421 484 34,000  Level FlightAware Transoceanic
10:30AM 50.5026 -36.0523 260° West 421 484 34,000  Level FlightAware Transoceanic
10:31AM 50.4827 -36.2334 260° West 421 484 34,000  Level FlightAware Transoceanic
10:32AM 50.4625 -36.4145 260° West 421 484 34,000  Level FlightAware Transoceanic
10:33AM 50.4420 -36.5954 260° West 421 484 34,000  Level FlightAware Transoceanic
10:34AM 50.4212 -36.7761 260° West 421 484 34,000  Level FlightAware Transoceanic
10:35AM 50.4002 -36.9566 260° West 421 484 34,000  Level FlightAware Transoceanic
10:36AM 50.3788 -37.1370 259° West 421 484 34,000  Level FlightAware Transoceanic
10:37AM 50.3572 -37.3173 259° West 421 484 34,000  Level FlightAware Transoceanic
10:38AM 50.3353 -37.4973 259° West 421 484 34,000  Level FlightAware Transoceanic
10:39AM 50.3132 -37.6772 259° West 421 484 34,000  Level FlightAware Transoceanic
10:40AM 50.2907 -37.8570 259° West 421 484 34,000  Level FlightAware Transoceanic
10:41AM 50.2680 -38.0365 259° West 421 484 34,000  Level FlightAware Transoceanic
10:42AM 50.2450 -38.2159 259° West 421 484 34,000  Level FlightAware Transoceanic
10:43AM 50.2218 -38.3951 258° West 421 484 34,000  Level FlightAware Transoceanic
10:44AM 50.1982 -38.5742 258° West 421 484 34,000  Level FlightAware Transoceanic
10:45AM 50.1744 -38.7531 258° West 421 484 34,000  Level FlightAware Transoceanic
10:46AM 50.1503 -38.9318 258° West 421 484 34,000  Level FlightAware Transoceanic
10:47AM 50.1259 -39.1102 258° West 421 484 34,000  Level FlightAware Transoceanic
10:48AM 50.1013 -39.2886 258° West 421 484 34,000  Level FlightAware Transoceanic
10:49AM 50.0764 -39.4667 258° West 421 484 34,000  Level FlightAware Transoceanic
10:50AM 50.0512 -39.6447 257° West 421 484 34,000  Level FlightAware Transoceanic
10:51AM 50.0257 -39.8224 257° West 421 484 34,000  Level FlightAware Transoceanic
10:52AM 49.9998 -40.0012 257° West  Level FlightAware Approximate
10:53AM 49.9996 -40.0023 257° West  Level FlightAware Approximate
10:54AM 49.9727 -40.1806 257° West  Level FlightAware Approximate
10:54AM 50.0000 -40.0000 257° West 432 497 34,000  Level ETMS Enhanced Traffic Management System
10:55AM 49.9455 -40.3586 257° West  Level FlightAware Approximate
10:56AM 49.9179 -40.5365 257° West  Level FlightAware Approximate
10:57AM 49.8902 -40.7141 256° West  Level FlightAware Approximate
10:58AM 49.8621 -40.8916 256° West  Level FlightAware Approximate
10:59AM 49.8338 -41.0688 256° West  Level FlightAware Approximate
11:00AM 49.7127 -41.8107 255° West 432 497 34,000  Level FlightAware Transoceanic
11:01AM 49.6824 -41.9906 255° West 432 497 34,000  Level FlightAware Transoceanic
11:02AM 49.6518 -42.1702 255° West 432 497 34,000  Level FlightAware Transoceanic
11:03AM 49.6210 -42.3497 255° West 432 497 34,000  Level FlightAware Transoceanic
11:04AM 49.5899 -42.5289 255° West 432 497 34,000  Level FlightAware Transoceanic
11:05AM 49.5585 -42.7078 255° West 432 497 34,000  Level FlightAware Transoceanic
11:06AM 49.5268 -42.8866 255° West 432 497 34,000  Level FlightAware Transoceanic
11:07AM 49.4949 -43.0651 255° West 432 497 34,000  Level FlightAware Transoceanic
11:08AM 49.4627 -43.2433 254° West 432 497 34,000  Level FlightAware Transoceanic
11:09AM 49.4302 -43.4214 254° West 432 497 34,000  Level FlightAware Transoceanic
11:10AM 49.3974 -43.5992 254° West 432 497 34,000  Level FlightAware Transoceanic
11:11AM 49.3644 -43.7767 254° West 432 497 34,000  Level FlightAware Transoceanic
11:12AM 49.3311 -43.9540 254° West 432 497 34,000  Level FlightAware Transoceanic
11:13AM 49.2976 -44.1311 254° West 432 497 34,000  Level FlightAware Transoceanic
11:14AM 49.2637 -44.3079 254° West 432 497 34,000  Level FlightAware Transoceanic
11:15AM 49.2296 -44.4845 253° West 432 497 34,000  Level FlightAware Transoceanic
11:16AM 49.1952 -44.6609 253° West 432 497 34,000  Level FlightAware Transoceanic
11:17AM 49.1606 -44.8370 253° West 432 497 34,000  Level FlightAware Transoceanic
11:18AM 49.1256 -45.0128 253° West 432 497 34,000  Level FlightAware Transoceanic
11:19AM 49.0905 -45.1884 253° West 432 497 34,000  Level FlightAware Transoceanic
11:20AM 49.0550 -45.3638 253° West 432 497 34,000  Level FlightAware Transoceanic
11:21AM 49.0193 -45.5389 253° West 432 497 34,000  Level FlightAware Transoceanic
11:22AM 48.9833 -45.7137 253° West 432 497 34,000  Level FlightAware Transoceanic
11:23AM 48.9471 -45.8883 252° West 432 497 34,000  Level FlightAware Transoceanic
11:24AM 48.9106 -46.0627 252° West 432 497 34,000  Level FlightAware Transoceanic
11:25AM 48.8738 -46.2368 252° West 432 497 34,000  Level FlightAware Transoceanic
11:26AM 48.8368 -46.4106 252° West 432 497 34,000  Level FlightAware Transoceanic
11:27AM 48.7995 -46.5842 252° West 432 497 34,000  Level FlightAware Transoceanic
11:28AM 48.7619 -46.7575 252° West 432 497 34,000  Level FlightAware Transoceanic
11:29AM 48.7241 -46.9305 252° West 432 497 34,000  Level FlightAware Transoceanic
11:30AM 48.6861 -47.1033 251° West 432 497 34,000  Level FlightAware Transoceanic
11:31AM 48.6477 -47.2759 251° West 432 497 34,000  Level FlightAware Transoceanic
11:32AM 48.6091 -47.4481 251° West 432 497 34,000  Level FlightAware Transoceanic
11:33AM 48.5703 -47.6202 251° West 432 497 34,000  Level FlightAware Transoceanic
11:34AM 48.5312 -47.7919 251° West 432 497 34,000  Level FlightAware Transoceanic
11:35AM 48.4919 -47.9634 251° West 432 497 34,000  Level FlightAware Transoceanic
11:36AM 48.4522 -48.1346 251° West 432 497 34,000  Level FlightAware Transoceanic
11:37AM 48.4124 -48.3055 251° West 432 497 34,000  Level FlightAware Transoceanic
11:38AM 48.3723 -48.4762 250° West 432 497 34,000  Level FlightAware Transoceanic
11:39AM 48.3319 -48.6466 250° West 432 497 34,000  Level FlightAware Transoceanic
11:40AM 48.2913 -48.8167 250° West 432 497 34,000  Level FlightAware Transoceanic
11:41AM 48.2504 -48.9866 250° West 432 497 34,000  Level FlightAware Transoceanic
11:42AM 48.2093 -49.1562 250° West 432 497 34,000  Level FlightAware Transoceanic
11:43AM 48.1679 -49.3255 250° West 432 497 34,000  Level FlightAware Transoceanic
11:44AM 48.1263 -49.4945 250° West 432 497 34,000  Level FlightAware Transoceanic
11:45AM 48.0845 -49.6633 250° West 432 497 34,000  Level FlightAware Transoceanic
11:46AM 48.0424 -49.8318 249° West 432 497 34,000  Level FlightAware Transoceanic
11:47AM 47.9969 -49.9942 247° West  Level FlightAware Approximate
11:48AM 48.0000 -50.0000 255° West 415 478 34,000  Level ETMS Enhanced Traffic Management System
11:48AM 48.0000 -49.9915 270° West  Level FlightAware Approximate
11:49AM 47.9710 -50.1618 255° West  Level FlightAware Approximate
11:49AM 47.9410 -50.3540 255° West 435 501 34,000  Level FlightAware
11:50AM 47.9403 -50.3315 255° West  Level FlightAware Approximate
11:50AM 47.9020 -50.5880 256° West 436 502 34,000  Level FlightAware
11:51AM 47.9094 -50.5010 255° West  Level FlightAware Approximate
11:52AM 47.8980 -50.8000 268° West 441 507 34,000  Level FlightAware
11:53AM 47.8990 -50.9710 271° West 440 506 34,000  Level FlightAware
11:53AM 47.9000 -51.0780 255° West 440 506 34,000  Level FlightAware
11:54AM 47.9010 -51.2140 271° West 440 506 34,000  Level FlightAware
11:54AM 47.9010 -51.3170 270° West 439 505 34,000  Level FlightAware
11:55AM 47.9020 -51.4400 271° West 438 504 34,000  Level FlightAware
11:56AM 47.9020 -51.5480 270° West 438 504 34,000  Level FlightAware
11:56AM 47.9020 -51.6650 270° West 438 504 34,000  Level FlightAware
11:57AM 47.9020 -51.7870 270° West 438 504 34,000  Level FlightAware
11:58AM 47.9020 -51.9640 270° West 438 504 34,000 420 Level FlightAware
11:59AM 47.9020 -52.0930 270° West 435 501 34,700 1,080 Climbing FlightAware
11:59AM 47.9010 -52.2150 269° West 434 499 35,600 960 Climbing FlightAware
12:00PM 47.9010 -52.3330 270° West 433 498 36,000 240 Climbing FlightAware
12:01PM 47.9000 -52.4700 269° West 429 494 36,000  Level FlightAware
12:01PM 47.8990 -52.5850 269° West 427 491 36,000  Level FlightAware
12:02PM 47.8990 -52.7050 270° West 426 490 36,000  Level FlightAware
12:03PM 47.8970 -52.8340 269° West 425 489 36,000  Level FlightAware
12:04PM 47.8960 -52.9670 269° West 424 488 36,000  Level FlightAware
12:04PM 47.8950 -53.0840 269° West 425 489 36,000  Level FlightAware
12:05PM 47.8940 -53.2020 269° West 425 489 36,000  Level FlightAware
12:06PM 47.8920 -53.3300 269° West 425 489 36,000  Level FlightAware
12:06PM 47.8900 -53.4460 269° West 426 490 36,000  Level FlightAware
12:07PM 47.8880 -53.5630 269° West 427 491 36,000  Level FlightAware
12:08PM 47.8860 -53.6980 269° West 429 494 36,000  Level FlightAware
12:08PM 47.8840 -53.8180 269° West 431 496 36,000  Level FlightAware
12:09PM 47.8820 -53.9430 269° West 432 497 36,000  Level FlightAware
12:10PM 47.8790 -54.0650 268° West 433 498 36,000  Level FlightAware
12:11PM 47.8770 -54.1820 269° West 434 499 36,000  Level FlightAware
12:11PM 47.8740 -54.3210 268° West 435 501 36,000  Level FlightAware
12:12PM 47.8710 -54.4400 268° West 435 501 36,000  Level FlightAware
12:13PM 47.8680 -54.5730 268° West 435 501 36,000  Level FlightAware
12:13PM 47.8650 -54.6910 268° West 435 501 36,000  Level FlightAware
12:14PM 47.8620 -54.8280 268° West 434 499 36,000  Level FlightAware
12:15PM 47.8590 -54.9480 268° West 432 497 36,000  Level FlightAware
12:15PM 47.8550 -55.0660 267° West 430 495 36,000  Level FlightAware
12:16PM 47.8510 -55.1970 267° West 429 494 36,000  Level FlightAware
12:17PM 47.8480 -55.3120 268° West 427 491 36,000  Level FlightAware
12:18PM 47.8440 -55.4480 268° West 425 489 36,000  Level FlightAware
12:18PM 47.8400 -55.5760 267° West 424 488 36,000  Level FlightAware
12:19PM 47.8360 -55.6800 267° West 423 487 36,000  Level FlightAware
12:20PM 47.8320 -55.7950 267° West 422 486 36,000  Level FlightAware
12:20PM 47.8280 -55.9110 267° West 421 484 36,000  Level FlightAware
12:21PM 47.8230 -56.0350 267° West 421 484 36,000  Level FlightAware
12:22PM 47.8190 -56.1550 267° West 420 483 36,000  Level FlightAware
12:22PM 47.8140 -56.2700 266° West 420 483 36,000  Level FlightAware
12:23PM 47.8090 -56.3980 267° West 421 484 36,000  Level FlightAware
12:24PM 47.8020 -56.5750 267° West 421 484 36,000  Level FlightAware
12:25PM 47.7970 -56.6900 266° West 421 484 36,000  Level FlightAware
12:25PM 47.7930 -56.7840 266° West 422 486 36,000  Level FlightAware
12:26PM 47.7880 -56.9060 267° West 422 486 36,000  Level FlightAware
12:27PM 47.7810 -57.0480 266° West 424 488 36,000  Level FlightAware
12:27PM 47.7770 -57.1450 267° West 424 488 36,000  Level FlightAware
12:28PM 47.7710 -57.2670 266° West 426 490 36,000  Level FlightAware
12:29PM 47.7640 -57.3810 265° West 426 490 36,000  Level FlightAware
12:30PM 47.7570 -57.5050 265° West 426 490 36,000  Level FlightAware
12:30PM 47.7510 -57.6040 265° West 426 490 36,000  Level FlightAware
12:31PM 47.7450 -57.7040 265° West 426 490 36,000  Level FlightAware
12:32PM 47.7390 -57.8030 265° West 426 490 36,000  Level FlightAware
12:32PM 47.7340 -57.9020 266° West 426 490 36,000  Level FlightAware
12:33PM 47.7260 -58.0260 265° West 426 490 36,000  Level FlightAware
12:34PM 47.7200 -58.1250 265° West 426 490 36,000  Level FlightAware
12:35PM 47.7150 -58.2250 266° West 426 490 36,000  Level FlightAware
12:35PM 47.7090 -58.3240 265° West 426 490 36,000  Level FlightAware
12:36PM 47.7030 -58.4230 265° West 426 490 36,000  Level FlightAware
12:37PM 47.6960 -58.5470 265° West 426 490 36,000  Level FlightAware
12:37PM 47.6900 -58.6460 265° West 426 490 36,000  Level FlightAware
12:38PM 47.6840 -58.7450 265° West 426 490 36,000  Level FlightAware
12:38PM 47.6500 -59.0333 265° West 420 483 36,000  Level Moncton Center
12:39PM 47.6500 -59.2000 270° West 420 483 36,000  Level Moncton Center
12:40PM 47.6333 -59.3833 262° West 420 483 36,000  Level Moncton Center
12:41PM 47.6333 -59.5500 270° West 420 483 36,000  Level Moncton Center
12:42PM 47.6000 -59.7333 255° West 420 483 36,000  Level Moncton Center
12:43PM 47.6000 -59.9000 270° West 430 495 36,000  Level Moncton Center
12:44PM 47.5833 -60.0833 262° West 430 495 36,000  Level Moncton Center
12:51PM 47.5150 -61.1850 262° West 444 511 36,000  Level FlightAware
12:51PM 47.5050 -61.3060 263° West 444 511 36,000  Level FlightAware
12:52PM 47.4970 -61.4080 263° West 444 511 36,000  Level FlightAware
12:53PM 47.4860 -61.5370 263° West 444 511 36,000  Level FlightAware
12:53PM 47.4780 -61.6390 263° West 444 511 36,000  Level FlightAware
12:54PM 47.4690 -61.7420 263° West 444 511 36,000  Level FlightAware
12:55PM 47.4610 -61.8440 263° West 444 511 36,000  Level FlightAware
12:55PM 47.4520 -61.9470 263° West 444 511 36,000  Level FlightAware
12:56PM 47.4410 -62.0750 263° West 444 511 36,000  Level FlightAware
12:57PM 47.4330 -62.1770 263° West 444 511 36,000  Level FlightAware
12:58PM 47.4240 -62.2800 263° West 444 511 36,000  Level FlightAware
12:58PM 47.4160 -62.3820 263° West 444 511 36,000  Level FlightAware
12:59PM 47.4070 -62.4850 263° West 444 511 36,000  Level FlightAware
01:00PM 47.3970 -62.6130 263° West 444 511 36,000  Level FlightAware
01:00PM 47.3880 -62.7150 263° West 444 511 36,000  Level FlightAware
01:01PM 47.3333 -63.1000 263° West 450 518 36,000  Level Gander Center
01:02PM 47.3167 -63.3000 263° West 450 518 36,000  Level Gander Center
01:03PM 47.2833 -63.4667 254° West 450 518 36,000  Level Gander Center
01:04PM 47.2667 -63.6500 262° West 450 518 36,000  Level Gander Center
01:05PM 47.2500 -63.8333 262° West 450 518 36,000  Level Gander Center
01:06PM 47.2333 -64.0167 262° West 450 518 36,000  Level Gander Center
01:07PM 47.2000 -64.1833 254° West 450 518 36,000  Level Gander Center
01:08PM 47.1833 -64.3833 263° West 450 518 36,000  Level Gander Center
01:09PM 47.1667 -64.5500 262° West 450 518 36,000  Level Gander Center
01:10PM 47.1500 -64.7167 262° West 450 518 36,000  Level Gander Center
01:11PM 47.1333 -64.9167 263° West 440 506 36,000  Level Gander Center
01:12PM 47.1167 -65.0833 262° West 440 506 36,000  Level Gander Center
01:13PM 47.0833 -65.3000 257° West 440 506 36,000  Level Moncton Center
01:14PM 47.0667 -65.4833 262° West 440 506 36,000  Level Moncton Center
01:15PM 47.0333 -65.6667 255° West 450 518 36,000  Level Moncton Center
01:16PM 47.0167 -65.8500 262° West 450 518 36,000  Level Moncton Center
01:17PM 47.0000 -66.0167 262° West 450 518 36,000  Level Moncton Center
01:18PM 46.9667 -66.1833 254° West 450 518 36,000  Level Moncton Center
01:19PM 46.9500 -66.3833 263° West 450 518 36,000  Level Moncton Center
01:20PM 46.9333 -66.5500 262° West 450 518 36,000  Level Moncton Center
01:21PM 46.9000 -66.7167 254° West 450 518 36,000 -60 Level Moncton Center
01:22PM 46.8833 -66.9167 263° West 450 518 35,900  Descending Moncton Center
01:23PM 46.8772 -67.0256 265° West 456 525 36,000 60 Climbing Boston Center
01:23PM 46.8500 -67.0833 235° Southwest 450 518 36,000  Level Moncton Center
01:29PM 46.6250 -68.1070 235° Southwest 433 498 36,000  Level FlightAware
01:30PM 46.6040 -68.1940 251° West 432 497 36,000  Level FlightAware
01:31PM 46.5610 -68.3730 251° West 431 496 36,000  Level FlightAware
01:32PM 46.5167 -68.4500 251° West 430 495 36,000  Level Montreal Center
01:32PM 46.5175 -68.5689 271° West 440 506 36,000  Level Boston Center
01:33PM 46.4747 -68.7317 249° West 434 499 36,000  Level Boston Center
01:34PM 46.4339 -68.8939 250° West 434 499 36,000  Level Boston Center
01:35PM 46.3950 -69.0558 251° West 434 499 36,000  Level Boston Center
01:35PM 46.3667 -69.1000 227° Southwest 430 495 36,000  Level Moncton Center
01:36PM 46.3686 -69.1536 273° West 434 499 36,000  Level Boston Center
01:37PM 46.3081 -69.3797 249° West 434 499 36,000  Level Boston Center
01:38PM 46.2664 -69.5439 250° West 434 499 36,000  Level Boston Center
01:39PM 46.2267 -69.7019 250° West 434 499 36,000  Level Boston Center
01:40PM 46.1825 -69.8689 249° West 434 499 36,000  Level Boston Center
01:41PM 46.1422 -70.0294 250° West 434 499 36,000  Level Boston Center
01:42PM 46.0953 -70.1900 247° West 439 505 36,000  Level Boston Center
01:43PM 46.0667 -70.2667 242° Southwest 430 495 36,000  Level Montreal Center
01:44PM 46.0167 -70.4167 244° Southwest 430 495 36,000  Level Montreal Center
01:45PM 45.9833 -70.5833 254° West 430 495 36,000  Level Montreal Center
01:46PM 45.9333 -70.7667 249° West 430 495 36,000 -480 Level Montreal Center
01:47PM 45.9167 -70.9000 260° West 430 495 35,100 -900 Descending Montreal Center
01:48PM 45.9000 -71.0833 263° West 410 472 34,200 -960 Descending Montreal Center
01:49PM 45.8667 -71.2500 254° West 410 472 33,200 -1,020 Descending Montreal Center
01:50PM 45.8667 -71.4000 270° West 420 483 32,200 -1,020 Descending Montreal Center
01:51PM 45.8500 -71.5833 263° West 430 495 31,200 -1,200 Descending Montreal Center
01:52PM 45.8333 -71.7333 261° West 430 495 29,800 -2,340 Descending Montreal Center
01:58PM 45.7490 -72.7290 261° West 353 406 14,600 -2,520 Descending FlightAware
01:59PM 45.7390 -72.8290 262° West 346 398 12,600 -2,760 Descending FlightAware
01:59PM 45.7300 -72.9190 262° West 339 390 10,700 -1,920 Descending FlightAware
02:00PM 45.7210 -73.0040 261° West 299 344 10,100 -900 Descending FlightAware
02:00PM 45.7150 -73.0590 261° West 281 323 9,700 -960 Descending FlightAware
02:01PM 45.7120 -73.0880 262° West 276 318 9,400 -1,200 Descending FlightAware
02:01PM 45.7070 -73.1310 261° West 273 314 8,900 -1,500 Descending FlightAware
02:01PM 45.7020 -73.1600 256° West 272 313 8,400 -1,620 Descending FlightAware
02:02PM 45.6940 -73.2120 258° West 271 312 7,700 -1,320 Descending FlightAware
02:02PM 45.6860 -73.2530 254° West 269 310 7,200 -1,500 Descending FlightAware
02:02PM 45.6750 -73.2760 236° Southwest 267 307 6,700 -1,500 Descending FlightAware
02:03PM 45.6530 -73.3050 223° Southwest 266 306 6,200 -1,380 Descending FlightAware
02:03PM 45.6420 -73.3280 236° Southwest 265 305 5,800 -1,200 Descending FlightAware
02:03PM 45.6400 -73.3480 262° West 264 304 5,600 -840 Descending FlightAware
02:04PM 45.6560 -73.3910 298° West 257 296 5,200 -900 Descending FlightAware
02:04PM 45.6750 -73.4170 316° Northwest 245 282 4,800 -900 Descending FlightAware
02:05PM 45.6980 -73.4500 315° West 223 257 4,400 -840 Descending FlightAware
02:05PM 45.7060 -73.4710 299° West 211 243 4,200 -600 Descending FlightAware
02:05PM 45.7070 -73.4800 279° West 207 238 4,200 -960 Level FlightAware
02:05PM 45.6970 -73.5030 238° Southwest 186 214 3,800 -1,080 Descending FlightAware
02:06PM 45.6860 -73.5070 194° South 188 216 3,600 -720 Descending FlightAware
02:06PM 45.6690 -73.5040 173° South 191 220 3,400 -540 Descending FlightAware
02:06PM 45.6480 -73.5190 207° Southwest 174 200 3,200 -360 Descending FlightAware
02:07PM 45.6340 -73.5380 224° Southwest 172 198 3,100 -240 Descending FlightAware
02:07PM 45.6170 -73.5610 223° Southwest 170 196 3,000 -120 Descending FlightAware
02:08PM 45.6020 -73.5800 222° Southwest 178 205 3,000 -360 Level FlightAware
02:08PM 45.5840 -73.6030 222° Southwest 181 208 2,700 -780 Descending FlightAware
02:08PM 45.5780 -73.6120 226° Southwest 182 209 2,500 -1,200 Descending FlightAware
02:09PM 45.5590 -73.6370 223° Southwest 181 208 1,900 -1,200 Descending FlightAware
02:09PM 45.5490 -73.6500 222° Southwest 173 199 1,600 -840 Descending FlightAware
02:10PM 45.5330 -73.6710 223° Southwest 163 188 1,300 -780 Descending FlightAware
02:10PM 45.5190 -73.6890 222° Southwest 148 170 900 -960 Descending FlightAware
02:10PM 45.5090 -73.7020 222° Southwest 145 167 600 -720 Descending FlightAware
02:11PM 45.4960 -73.7190 223° Southwest 147 169 300 -600 Descending FlightAware
02:12PM 45.4800 -73.7400 223° Southwest 140 161 -540 Descending FlightAware